createdAt,value
2018-03-31T00:02:07.350Z,4.97
2018-03-31T00:04:34.329Z,4.30
2018-03-31T00:07:01.606Z,4.85
2018-03-31T00:09:28.562Z,5.50
2018-03-31T00:11:56.605Z,5.07
2018-03-31T00:14:23.676Z,4.50
2018-03-31T00:16:50.656Z,4.53
2018-03-31T00:19:17.645Z,5.47
2018-03-31T00:21:45.512Z,5.03
2018-03-31T00:24:12.558Z,7.03
2018-03-31T00:26:39.526Z,11.80
2018-03-31T00:29:07.490Z,7.50
2018-03-31T00:31:34.435Z,6.32
2018-03-31T00:34:01.741Z,7.37
2018-03-31T00:36:28.717Z,6.97
2018-03-31T00:38:55.710Z,6.37
2018-03-31T00:41:23.404Z,6.70
2018-03-31T00:43:50.385Z,6.47
2018-03-31T00:46:17.357Z,6.80
2018-03-31T00:48:44.320Z,6.47
2018-03-31T00:51:11.457Z,8.07
2018-03-31T00:53:38.405Z,6.67
2018-03-31T00:56:06.838Z,8.05
2018-03-31T00:58:33.826Z,11.50
2018-03-31T01:01:01.021Z,7.87
2018-03-31T01:03:28.180Z,8.97
2018-03-31T01:05:55.236Z,7.00
2018-03-31T01:08:22.200Z,6.43
2018-03-31T01:10:50.423Z,8.02
2018-03-31T01:13:17.386Z,7.70
2018-03-31T01:15:44.335Z,8.63
2018-03-31T01:18:11.305Z,6.60
2018-03-31T01:20:38.441Z,12.23
2018-03-31T01:23:05.432Z,10.80
2018-03-31T01:25:33.844Z,9.63
2018-03-31T01:28:00.793Z,9.63
2018-03-31T01:30:27.854Z,8.20
2018-03-31T01:32:54.803Z,8.00
2018-03-31T01:35:26.071Z,7.30
2018-03-31T01:37:57.497Z,7.68
2018-03-31T01:40:24.479Z,8.05
2018-03-31T01:42:53.149Z,6.50
2018-03-31T01:45:20.894Z,7.45
2018-03-31T01:47:47.934Z,4.70
2018-03-31T01:50:19.389Z,4.80
2018-03-31T01:52:46.384Z,4.03
2018-03-31T01:55:13.354Z,3.60
2018-03-31T01:57:40.309Z,2.90
2018-03-31T02:00:07.305Z,5.75
2018-03-31T02:02:34.281Z,3.80
2018-03-31T02:05:01.230Z,5.77
2018-03-31T02:07:28.204Z,3.25
2018-03-31T02:09:56.258Z,4.85
2018-03-31T02:12:23.229Z,5.33
2018-03-31T02:14:50.183Z,7.53
2018-03-31T02:17:17.977Z,4.90
2018-03-31T02:19:44.956Z,4.65
2018-03-31T02:22:11.908Z,4.67
2018-03-31T02:24:39.010Z,4.43
2018-03-31T02:27:06.761Z,5.00
2018-03-31T02:29:34.485Z,5.83
2018-03-31T02:32:01.476Z,3.97
2018-03-31T02:34:28.428Z,6.17
2018-03-31T02:36:59.233Z,4.10
2018-03-31T02:39:28.617Z,4.33
2018-03-31T02:41:55.669Z,3.42
2018-03-31T02:44:23.093Z,4.32
2018-03-31T02:46:50.566Z,4.00
2018-03-31T02:49:17.549Z,4.22
2018-03-31T02:51:48.877Z,8.55
2018-03-31T02:54:15.873Z,7.20
2018-03-31T02:56:43.609Z,4.50
2018-03-31T02:59:10.582Z,4.30
2018-03-31T03:01:37.561Z,4.35
2018-03-31T03:04:04.521Z,7.57
2018-03-31T03:06:31.467Z,6.00
2018-03-31T03:08:58.436Z,5.40
2018-03-31T03:11:26.201Z,7.15
2018-03-31T03:13:53.140Z,8.27
2018-03-31T03:16:20.866Z,8.00
2018-03-31T03:18:47.840Z,8.47
2018-03-31T03:21:14.809Z,8.53
2018-03-31T03:23:42.716Z,7.55
2018-03-31T03:26:09.733Z,8.05
2018-03-31T03:28:37.453Z,6.85
2018-03-31T03:31:04.795Z,11.02
2018-03-31T03:33:31.973Z,8.60
2018-03-31T03:36:00.453Z,9.50
2018-03-31T03:38:28.597Z,10.23
2018-03-31T03:40:55.564Z,9.40
2018-03-31T03:43:22.552Z,10.90
2018-03-31T03:45:50.277Z,11.67
2018-03-31T03:48:17.255Z,13.03
2018-03-31T03:50:44.205Z,9.17
2018-03-31T03:53:15.325Z,10.70
2018-03-31T03:55:43.778Z,9.50
2018-03-31T03:58:11.698Z,12.63
2018-03-31T04:00:38.663Z,13.27
2018-03-31T04:03:06.125Z,12.83
2018-03-31T04:05:33.080Z,13.00
2018-03-31T04:08:04.037Z,13.18
2018-03-31T04:10:31.035Z,12.18
2018-03-31T04:12:58.303Z,12.53
2018-03-31T04:15:25.511Z,12.63
2018-03-31T04:17:52.913Z,14.50
2018-03-31T04:20:20.841Z,13.95
2018-03-31T04:22:47.798Z,13.00
2018-03-31T04:25:14.750Z,14.30
2018-03-31T04:27:41.724Z,18.67
2018-03-31T04:30:09.258Z,15.60
2018-03-31T04:32:36.240Z,16.50
2018-03-31T04:35:03.451Z,14.25
2018-03-31T04:37:39.065Z,17.42
2018-03-31T04:40:06.040Z,13.43
2018-03-31T04:42:34.729Z,16.13
2018-03-31T04:45:02.474Z,14.47
2018-03-31T04:47:29.445Z,14.73
2018-03-31T04:49:56.409Z,16.20
2018-03-31T04:52:23.405Z,16.50
2018-03-31T04:54:50.360Z,16.87
2018-03-31T04:57:18.205Z,14.30
2018-03-31T04:59:45.153Z,15.60
2018-03-31T05:02:12.140Z,15.63
2018-03-31T05:04:39.118Z,11.53
2018-03-31T05:07:06.542Z,18.87
2018-03-31T05:09:33.504Z,17.10
2018-03-31T05:12:01.749Z,17.62
2018-03-31T05:14:29.470Z,17.17
2018-03-31T05:16:56.465Z,15.25
2018-03-31T05:19:23.484Z,17.00
2018-03-31T05:21:50.445Z,24.47
2018-03-31T05:24:17.438Z,16.62
2018-03-31T05:26:45.217Z,15.90
2018-03-31T05:29:12.196Z,19.48
2018-03-31T05:31:39.169Z,19.20
2018-03-31T05:34:06.206Z,20.55
2018-03-31T05:36:33.448Z,18.08
2018-03-31T05:39:04.937Z,19.87
2018-03-31T05:41:31.942Z,28.67
2018-03-31T05:43:59.662Z,16.60
2018-03-31T05:46:26.630Z,17.60
2018-03-31T05:48:53.954Z,14.10
2018-03-31T05:51:20.917Z,18.95
2018-03-31T05:53:47.891Z,14.68
2018-03-31T05:56:14.875Z,21.70
2018-03-31T05:58:41.825Z,18.50
2018-03-31T06:01:08.913Z,16.27
2018-03-31T06:03:35.935Z,16.65
2018-03-31T06:06:02.885Z,17.50
2018-03-31T06:08:30.551Z,18.87
2018-03-31T06:10:57.678Z,14.82
2018-03-31T06:13:24.869Z,9.50
2018-03-31T06:15:52.188Z,18.63
2018-03-31T06:18:19.406Z,15.43
2018-03-31T06:20:47.158Z,16.57
2018-03-31T06:23:16.089Z,15.40
2018-03-31T06:25:43.069Z,15.70
2018-03-31T06:28:10.054Z,16.03
2018-03-31T06:30:37.017Z,15.57
2018-03-31T06:33:04.749Z,16.77
2018-03-31T06:35:33.430Z,17.10
2018-03-31T06:38:00.462Z,16.27
2018-03-31T06:40:31.908Z,16.15
2018-03-31T06:42:58.913Z,16.10
2018-03-31T06:45:26.374Z,14.23
2018-03-31T06:47:53.375Z,16.35
2018-03-31T06:50:20.329Z,15.60
2018-03-31T06:52:48.120Z,12.90
2018-03-31T06:55:18.881Z,15.10
2018-03-31T06:57:45.861Z,14.70
2018-03-31T07:00:12.820Z,17.77
2018-03-31T07:02:39.818Z,15.83
2018-03-31T07:05:06.813Z,13.90
2018-03-31T07:07:33.782Z,15.87
2018-03-31T07:10:04.350Z,13.28
2018-03-31T07:12:31.297Z,14.47
2018-03-31T07:14:58.268Z,14.93
2018-03-31T07:17:25.481Z,16.17
2018-03-31T07:19:52.456Z,16.20
2018-03-31T07:22:20.671Z,15.70
2018-03-31T07:24:47.734Z,15.90
2018-03-31T07:27:14.735Z,13.43
2018-03-31T07:29:42.460Z,13.50
2018-03-31T07:32:09.448Z,13.30
2018-03-31T07:34:36.396Z,16.23
2018-03-31T07:37:03.386Z,13.82
2018-03-31T07:39:30.573Z,14.80
2018-03-31T07:42:01.595Z,15.07
2018-03-31T07:44:28.558Z,13.03
2018-03-31T07:46:55.537Z,15.93
2018-03-31T07:49:22.856Z,19.27
2018-03-31T07:51:49.819Z,14.20
2018-03-31T07:54:17.374Z,13.35
2018-03-31T07:56:48.925Z,14.98
2018-03-31T07:59:15.881Z,15.43
2018-03-31T08:01:43.625Z,13.55
2018-03-31T08:04:10.634Z,11.80
2018-03-31T08:06:37.821Z,10.67
2018-03-31T08:09:04.824Z,10.63
2018-03-31T08:11:42.253Z,12.37
2018-03-31T08:14:09.285Z,13.33
2018-03-31T08:16:37.208Z,12.25
2018-03-31T08:19:04.189Z,14.07
2018-03-31T08:21:32.498Z,9.60
2018-03-31T08:23:59.453Z,10.33
2018-03-31T08:26:30.994Z,10.83
2018-03-31T08:28:58.006Z,13.83
2018-03-31T08:31:25.002Z,16.00
2018-03-31T08:33:51.954Z,11.53
2018-03-31T08:36:19.705Z,11.37
2018-03-31T08:38:46.681Z,11.50
2018-03-31T08:41:13.672Z,10.85
2018-03-31T08:43:41.001Z,11.17
2018-03-31T08:46:08.049Z,11.10
2018-03-31T08:48:35.009Z,10.60
2018-03-31T08:51:01.988Z,14.40
2018-03-31T08:53:28.940Z,9.20
2018-03-31T08:55:55.896Z,11.67
2018-03-31T08:58:24.092Z,9.18
2018-03-31T09:00:51.136Z,9.03
2018-03-31T09:03:18.111Z,9.80
2018-03-31T09:05:45.060Z,8.20
2018-03-31T09:08:12.087Z,9.20
2018-03-31T09:10:39.055Z,11.60
2018-03-31T09:13:10.829Z,12.40
2018-03-31T09:15:37.793Z,13.00
2018-03-31T09:18:04.770Z,6.77
2018-03-31T09:20:31.728Z,11.30
2018-03-31T09:22:58.718Z,7.77
2018-03-31T09:25:26.023Z,9.23
2018-03-31T09:27:52.976Z,10.65
2018-03-31T09:30:21.290Z,18.42
2018-03-31T09:32:48.645Z,15.82
2018-03-31T09:35:15.626Z,7.93
2018-03-31T09:37:43.385Z,9.47
2018-03-31T09:40:11.113Z,6.37
2018-03-31T09:42:38.074Z,14.40
2018-03-31T09:45:05.057Z,11.20
2018-03-31T09:47:32.039Z,11.00
2018-03-31T09:49:58.989Z,7.60
2018-03-31T09:52:26.141Z,8.80
2018-03-31T09:54:53.104Z,9.10
2018-03-31T09:57:20.082Z,6.80
2018-03-31T09:59:47.461Z,11.35
2018-03-31T10:02:14.708Z,10.05
2018-03-31T10:04:41.933Z,12.73
2018-03-31T10:07:08.926Z,7.65
2018-03-31T10:09:36.330Z,9.55
2018-03-31T10:12:04.060Z,8.05
2018-03-31T10:14:31.041Z,5.60
2018-03-31T10:16:57.993Z,9.00
2018-03-31T10:19:25.646Z,10.40
2018-03-31T10:21:52.661Z,7.87
2018-03-31T10:24:19.768Z,11.07
2018-03-31T10:26:46.998Z,7.20
2018-03-31T10:29:14.742Z,9.90
2018-03-31T10:31:41.778Z,7.87
2018-03-31T10:34:08.808Z,7.57
2018-03-31T10:36:35.790Z,11.10
2018-03-31T10:39:02.777Z,7.80
2018-03-31T10:41:29.765Z,7.07
2018-03-31T10:43:57.248Z,10.43
2018-03-31T10:46:24.204Z,8.02
2018-03-31T10:48:52.604Z,7.08
2018-03-31T10:51:19.599Z,6.67
2018-03-31T10:53:46.556Z,11.67
2018-03-31T10:56:14.283Z,5.70
2018-03-31T10:58:45.649Z,6.87
2018-03-31T11:01:12.600Z,6.93
2018-03-31T11:03:39.802Z,6.97
2018-03-31T11:06:06.852Z,7.30
2018-03-31T11:08:33.834Z,7.40
2018-03-31T11:11:01.783Z,5.50
2018-03-31T11:13:28.737Z,8.43
2018-03-31T11:15:55.857Z,6.03
2018-03-31T11:18:22.804Z,9.10
2018-03-31T11:20:49.800Z,6.13
2018-03-31T11:23:16.974Z,7.10
2018-03-31T11:25:44.713Z,6.30
2018-03-31T11:28:11.685Z,6.32
2018-03-31T11:30:38.657Z,6.30
2018-03-31T11:33:05.618Z,5.00
2018-03-31T11:35:33.629Z,5.18
2018-03-31T11:38:01.357Z,5.67
2018-03-31T11:40:28.322Z,6.10
2018-03-31T11:42:55.290Z,5.90
2018-03-31T11:45:22.244Z,4.77
2018-03-31T11:47:49.229Z,5.33
2018-03-31T11:50:16.217Z,5.47
2018-03-31T11:52:43.182Z,5.20
2018-03-31T11:55:10.633Z,4.50
2018-03-31T11:57:38.385Z,4.70
2018-03-31T12:00:05.359Z,4.90
2018-03-31T12:02:32.333Z,4.35
2018-03-31T12:04:59.505Z,6.12
2018-03-31T12:07:26.490Z,5.20
2018-03-31T12:09:54.095Z,5.28
2018-03-31T12:12:21.055Z,7.47
2018-03-31T12:14:48.680Z,4.47
2018-03-31T12:17:15.720Z,5.63
2018-03-31T12:19:42.881Z,5.72
2018-03-31T12:22:09.964Z,5.10
2018-03-31T12:24:37.306Z,4.43
2018-03-31T12:27:04.319Z,8.17
2018-03-31T12:29:31.285Z,5.63
2018-03-31T12:31:58.286Z,4.70
2018-03-31T12:34:25.848Z,4.50
2018-03-31T12:36:53.571Z,6.77
2018-03-31T12:39:20.630Z,8.53
2018-03-31T12:41:47.585Z,4.93
2018-03-31T12:44:14.803Z,3.95
2018-03-31T12:46:41.826Z,4.82
2018-03-31T12:49:09.190Z,6.95
2018-03-31T12:51:36.145Z,5.90
2018-03-31T12:54:03.722Z,11.00
2018-03-31T12:56:30.841Z,9.53
2018-03-31T12:58:58.364Z,9.27
2018-03-31T13:01:25.335Z,10.67
2018-03-31T13:03:53.056Z,10.73
2018-03-31T13:06:20.021Z,8.00
2018-03-31T13:08:48.057Z,9.23
2018-03-31T13:11:15.071Z,7.20
2018-03-31T13:13:42.038Z,11.23
2018-03-31T13:16:12.474Z,21.27
2018-03-31T13:18:39.453Z,9.60
2018-03-31T13:21:06.845Z,8.55
2018-03-31T13:23:33.832Z,7.37
2018-03-31T13:26:01.305Z,5.37
2018-03-31T13:28:28.267Z,7.78
2018-03-31T13:30:55.758Z,4.22
2018-03-31T13:33:22.710Z,5.82
2018-03-31T13:35:51.033Z,5.00
2018-03-31T13:38:18.068Z,7.45
2018-03-31T13:40:45.046Z,7.80
2018-03-31T13:43:12.039Z,6.62
2018-03-31T13:45:39.217Z,4.82
2018-03-31T13:48:10.018Z,7.10
2018-03-31T13:50:36.992Z,6.43
2018-03-31T13:53:03.937Z,7.83
2018-03-31T13:55:30.896Z,6.63
2018-03-31T13:57:58.189Z,8.32
2018-03-31T14:00:25.185Z,6.60
2018-03-31T14:02:56.557Z,12.23
2018-03-31T14:05:23.526Z,10.00
2018-03-31T14:07:50.509Z,5.80
2018-03-31T14:10:18.529Z,4.95
2018-03-31T14:12:45.509Z,7.00
2018-03-31T14:15:12.493Z,6.20
2018-03-31T14:17:40.213Z,4.70
2018-03-31T14:20:07.185Z,2.90
2018-03-31T14:22:34.132Z,5.22
2018-03-31T14:25:01.953Z,3.62
2018-03-31T14:27:28.900Z,3.43
2018-03-31T14:29:55.940Z,4.40
2018-03-31T14:32:27.332Z,9.50
2018-03-31T14:34:54.312Z,5.15
2018-03-31T14:37:22.040Z,4.90
2018-03-31T14:39:48.992Z,4.30
2018-03-31T14:42:16.037Z,3.53
2018-03-31T14:44:43.026Z,5.17
2018-03-31T14:47:09.975Z,3.37
2018-03-31T14:49:36.942Z,3.17
2018-03-31T14:52:03.926Z,2.87
2018-03-31T14:54:30.925Z,2.60
2018-03-31T14:56:58.362Z,3.60
2018-03-31T14:59:26.087Z,3.47
2018-03-31T15:01:53.085Z,3.00
2018-03-31T15:04:20.062Z,4.97
2018-03-31T15:06:48.141Z,6.05
2018-03-31T15:09:15.106Z,6.10
2018-03-31T15:11:42.865Z,5.23
2018-03-31T15:14:09.847Z,3.90
2018-03-31T15:16:37.116Z,4.97
2018-03-31T15:19:04.393Z,6.80
2018-03-31T15:21:31.353Z,6.53
2018-03-31T15:23:58.330Z,6.23
2018-03-31T15:26:26.241Z,16.43
2018-03-31T15:28:53.226Z,8.23
2018-03-31T15:31:20.177Z,4.90
2018-03-31T15:33:50.977Z,7.85
2018-03-31T15:36:17.938Z,4.80
2018-03-31T15:38:44.914Z,9.33
2018-03-31T15:41:11.883Z,6.60
2018-03-31T15:43:39.088Z,6.65
2018-03-31T15:46:06.828Z,9.30
2018-03-31T15:48:34.323Z,7.53
2018-03-31T15:51:02.096Z,5.53
2018-03-31T15:53:29.809Z,6.50
2018-03-31T15:55:56.777Z,7.50
2018-03-31T15:58:23.821Z,5.40
2018-03-31T16:00:50.791Z,7.05
2018-03-31T16:03:18.008Z,8.37
2018-03-31T16:05:45.176Z,8.17
2018-03-31T16:08:12.173Z,7.87
2018-03-31T16:10:39.138Z,6.17
2018-03-31T16:13:06.134Z,4.27
2018-03-31T16:15:33.876Z,5.77
2018-03-31T16:18:00.827Z,3.07
2018-03-31T16:20:27.817Z,5.97
2018-03-31T16:22:54.926Z,3.87
2018-03-31T16:25:21.913Z,7.70
2018-03-31T16:27:49.533Z,7.78
2018-03-31T16:30:16.658Z,6.10
2018-03-31T16:32:44.011Z,6.90
2018-03-31T16:35:11.277Z,4.72
2018-03-31T16:37:39.436Z,11.55
2018-03-31T16:40:06.414Z,5.90
2018-03-31T16:42:33.504Z,4.87
2018-03-31T16:45:00.494Z,6.53
2018-03-31T16:47:27.480Z,5.78
2018-03-31T16:49:57.565Z,7.43
2018-03-31T16:52:24.507Z,9.60
2018-03-31T16:54:52.677Z,8.73
2018-03-31T16:57:19.625Z,6.50
2018-03-31T16:59:46.606Z,7.20
2018-03-31T17:02:13.558Z,8.63
2018-03-31T17:04:40.901Z,8.04
2018-03-31T17:07:07.862Z,11.30
2018-03-31T17:09:36.074Z,7.90
2018-03-31T17:12:03.052Z,8.90
2018-03-31T17:14:30.080Z,7.50
2018-03-31T17:16:57.023Z,9.20
2018-03-31T17:19:24.201Z,10.33
2018-03-31T17:21:51.206Z,7.40
2018-03-31T17:24:18.694Z,9.93
2018-03-31T17:26:46.417Z,8.63
2018-03-31T17:29:13.462Z,13.20
2018-03-31T17:31:40.421Z,9.77
2018-03-31T17:34:07.732Z,10.73
2018-03-31T17:36:39.240Z,18.60
2018-03-31T17:39:06.211Z,9.68
2018-03-31T17:41:33.951Z,12.43
2018-03-31T17:44:00.959Z,11.82
2018-03-31T17:46:27.948Z,13.47
2018-03-31T17:48:54.923Z,12.33
2018-03-31T17:51:21.877Z,11.70
2018-03-31T17:53:48.961Z,13.10
2018-03-31T17:56:17.115Z,14.00
2018-03-31T17:58:44.098Z,13.27
2018-03-31T18:01:11.055Z,11.43
2018-03-31T18:03:38.040Z,14.17
2018-03-31T18:06:06.186Z,10.57
2018-03-31T18:08:33.154Z,15.88
2018-03-31T18:11:00.101Z,14.27
2018-03-31T18:13:27.067Z,18.45
2018-03-31T18:15:54.538Z,18.23
2018-03-31T18:18:21.500Z,14.37
2018-03-31T18:20:49.753Z,16.40
2018-03-31T18:23:16.734Z,14.60
2018-03-31T18:25:44.665Z,15.97
2018-03-31T18:28:11.653Z,19.83
2018-03-31T18:30:39.377Z,22.03
2018-03-31T18:33:06.356Z,15.33
2018-03-31T18:35:33.346Z,18.95
2018-03-31T18:38:00.301Z,19.15
2018-03-31T18:40:28.055Z,18.75
2018-03-31T18:42:55.034Z,14.00
2018-03-31T18:45:22.017Z,16.02
2018-03-31T18:47:48.981Z,18.37
2018-03-31T18:50:15.937Z,17.50
2018-03-31T18:52:47.014Z,20.45
2018-03-31T18:55:14.174Z,18.10
2018-03-31T18:57:41.121Z,18.93
2018-03-31T19:00:08.081Z,17.10
2018-03-31T19:02:35.061Z,21.73
2018-03-31T19:05:02.023Z,19.47
2018-03-31T19:07:29.463Z,22.65
2018-03-31T19:09:56.416Z,15.68
2018-03-31T19:12:23.868Z,20.08
2018-03-31T19:14:50.820Z,14.57
2018-03-31T19:17:18.346Z,19.65
2018-03-31T19:19:46.109Z,17.00
2018-03-31T19:22:13.128Z,21.83
2018-03-31T19:24:45.780Z,16.63
2018-03-31T19:29:47.286Z,17.13
2018-03-31T19:32:15.009Z,22.80
2018-03-31T19:34:41.977Z,17.20
2018-03-31T19:37:08.956Z,20.53
2018-03-31T19:39:41.686Z,15.57
2018-03-31T19:42:08.904Z,24.58
2018-03-31T19:44:35.886Z,18.00
2018-03-31T19:47:04.078Z,17.07
2018-03-31T19:49:31.048Z,16.00
2018-03-31T19:51:58.025Z,21.60
2018-03-31T19:54:28.834Z,19.37
2018-03-31T19:56:55.809Z,22.50
2018-03-31T19:59:22.768Z,22.60
2018-03-31T20:01:49.764Z,17.65
2018-03-31T20:04:17.536Z,18.42
2018-03-31T20:06:45.257Z,18.07
2018-03-31T20:09:12.241Z,17.50
2018-03-31T20:11:39.217Z,15.97
2018-03-31T20:14:06.311Z,19.00
2018-03-31T20:16:33.261Z,21.03
2018-03-31T20:19:01.022Z,19.58
2018-03-31T20:21:28.046Z,20.13
2018-03-31T20:23:55.073Z,18.73
2018-03-31T20:26:22.059Z,14.55
2018-03-31T20:28:49.901Z,18.52
2018-03-31T20:31:16.898Z,21.20
2018-03-31T20:33:43.852Z,19.63
2018-03-31T20:36:10.959Z,18.67
2018-03-31T20:38:38.174Z,19.25
2018-03-31T20:41:05.129Z,17.70
2018-03-31T20:43:32.612Z,18.30
2018-03-31T20:45:59.587Z,18.10
2018-03-31T20:48:27.040Z,25.20
2018-03-31T20:50:53.997Z,22.20
2018-03-31T20:53:21.514Z,20.15
2018-03-31T20:55:48.473Z,20.27
2018-03-31T20:58:16.129Z,21.52
2018-03-31T21:00:43.082Z,18.97
2018-03-31T21:03:11.329Z,22.20
2018-03-31T21:05:38.337Z,17.30
2018-03-31T21:08:05.294Z,19.13
2018-03-31T21:10:35.824Z,17.87
2018-03-31T21:13:02.815Z,17.80
2018-03-31T21:15:29.994Z,18.17
2018-03-31T21:17:56.979Z,16.30
2018-03-31T21:20:24.116Z,20.50
2018-03-31T21:22:51.084Z,18.17
2018-03-31T21:25:22.537Z,17.27
2018-03-31T21:27:49.498Z,15.85
2018-03-31T21:30:16.473Z,17.57
2018-03-31T21:32:43.481Z,27.45
2018-03-31T21:35:10.487Z,19.15
2018-03-31T21:37:38.277Z,16.75
2018-03-31T21:40:05.229Z,19.93
2018-03-31T21:42:32.545Z,17.15
2018-03-31T21:44:59.736Z,17.07
2018-03-31T21:47:27.206Z,20.70
2018-03-31T21:49:54.161Z,18.53
2018-03-31T21:52:22.217Z,15.50
2018-03-31T21:54:52.668Z,18.23
2018-03-31T21:57:19.617Z,18.90
2018-03-31T21:59:46.630Z,19.23
2018-03-31T22:02:13.786Z,18.15
2018-03-31T22:04:40.813Z,16.03
2018-03-31T22:07:08.130Z,17.90
2018-03-31T22:09:35.032Z,22.00
2018-03-31T22:12:02.038Z,24.20
2018-03-31T22:14:35.110Z,18.73
2018-03-31T22:17:02.081Z,17.83
2018-03-31T22:19:29.990Z,16.47
2018-03-31T22:21:57.136Z,16.97
2018-03-31T22:24:24.316Z,21.27
2018-03-31T22:26:51.298Z,19.57
2018-03-31T22:29:18.877Z,21.60
2018-03-31T22:31:46.034Z,18.43
2018-03-31T22:34:13.329Z,20.77
2018-03-31T22:36:41.070Z,23.87
2018-03-31T22:39:08.080Z,20.40
2018-03-31T22:41:35.016Z,17.13
2018-03-31T22:44:03.113Z,14.23
2018-03-31T22:46:30.069Z,15.90
2018-03-31T22:48:57.040Z,16.17
2018-03-31T22:51:24.160Z,16.13
2018-03-31T22:53:52.572Z,16.67
2018-03-31T22:56:19.526Z,17.83
2018-03-31T22:58:46.537Z,16.50
2018-03-31T23:01:13.488Z,15.37
2018-03-31T23:03:40.446Z,17.52
2018-03-31T23:06:07.425Z,16.97
2018-03-31T23:08:34.581Z,19.67
2018-03-31T23:11:05.341Z,16.87
2018-03-31T23:13:32.300Z,21.07
2018-03-31T23:16:00.384Z,18.40
2018-03-31T23:18:28.129Z,22.17
2018-03-31T23:20:55.147Z,21.23
2018-03-31T23:23:22.097Z,20.00
2018-03-31T23:25:49.056Z,15.77
2018-03-31T23:28:16.034Z,15.57
2018-03-31T23:30:43.012Z,23.07
2018-03-31T23:33:10.044Z,20.05
2018-03-31T23:35:37.033Z,17.70
2018-03-31T23:38:03.993Z,18.43
2018-03-31T23:40:31.465Z,18.83
2018-03-31T23:43:01.668Z,17.00
2018-03-31T23:45:28.653Z,15.03
2018-03-31T23:47:57.315Z,20.60
2018-03-31T23:50:24.277Z,23.80
2018-03-31T23:52:51.233Z,17.20
2018-03-31T23:55:18.228Z,18.00
2018-03-31T23:57:45.521Z,19.16
